createdAt,value
2019-02-04T00:01:39.484Z,11.00
2019-02-04T00:04:10.446Z,8.10
2019-02-04T00:06:41.343Z,9.43
2019-02-04T00:09:12.431Z,9.50
2019-02-04T00:11:43.526Z,11.90
2019-02-04T00:14:14.705Z,10.27
2019-02-04T00:16:45.494Z,11.87
2019-02-04T00:19:16.684Z,12.77
2019-02-04T00:21:48.670Z,10.73
2019-02-04T00:24:19.787Z,12.03
2019-02-04T00:26:51.895Z,12.80
2019-02-04T00:29:22.905Z,10.73
2019-02-04T00:31:53.779Z,11.73
2019-02-04T00:34:25.075Z,11.43
2019-02-04T00:36:55.984Z,11.67
2019-02-04T00:39:27.320Z,11.07
2019-02-04T00:41:58.156Z,11.07
2019-02-04T00:44:29.247Z,11.20
2019-02-04T00:47:00.046Z,11.80
2019-02-04T00:49:31.034Z,8.97
2019-02-04T00:52:02.221Z,10.77
2019-02-04T00:54:33.197Z,10.20
2019-02-04T00:57:04.108Z,10.13
2019-02-04T00:59:35.004Z,9.60
2019-02-04T01:02:06.483Z,10.60
2019-02-04T01:04:37.660Z,10.20
2019-02-04T01:07:08.954Z,9.13
2019-02-04T01:09:40.885Z,11.30
2019-02-04T01:12:11.765Z,10.60
2019-02-04T01:14:42.747Z,9.90
2019-02-04T01:17:13.868Z,9.97
2019-02-04T01:19:45.227Z,11.50
2019-02-04T01:22:15.951Z,10.90
2019-02-04T01:24:48.197Z,10.60
2019-02-04T01:27:19.428Z,10.60
2019-02-04T01:29:50.636Z,11.13
2019-02-04T01:32:21.554Z,10.07
2019-02-04T01:34:52.725Z,11.13
2019-02-04T01:37:23.632Z,11.07
2019-02-04T01:39:54.605Z,10.47
2019-02-04T01:42:25.496Z,11.80
2019-02-04T01:44:56.397Z,11.70
2019-02-04T01:47:27.184Z,9.93
2019-02-04T01:49:58.155Z,10.63
2019-02-04T01:52:29.060Z,9.70
2019-02-04T01:55:00.452Z,10.67
2019-02-04T01:57:31.338Z,9.87
2019-02-04T02:00:02.224Z,12.00
2019-02-04T02:02:33.121Z,10.80
2019-02-04T02:05:04.219Z,12.20
2019-02-04T02:07:35.494Z,12.60
2019-02-04T02:10:06.895Z,10.60
2019-02-04T02:12:37.595Z,12.13
2019-02-04T02:15:08.674Z,11.87
2019-02-04T02:17:39.867Z,10.37
2019-02-04T02:20:13.289Z,10.53
2019-02-04T02:22:44.199Z,10.40
2019-02-04T02:25:15.195Z,10.67
2019-02-04T02:27:46.257Z,11.93
2019-02-04T02:30:23.173Z,9.67
2019-02-04T02:32:54.112Z,10.17
2019-02-04T02:35:25.174Z,12.20
2019-02-04T02:37:56.196Z,10.47
2019-02-04T02:40:32.100Z,11.17
2019-02-04T02:43:03.413Z,11.43
2019-02-04T02:45:34.828Z,10.67
2019-02-04T02:48:05.876Z,9.40
2019-02-04T02:50:36.884Z,9.77
2019-02-04T02:53:07.669Z,9.07
2019-02-04T02:55:38.940Z,7.10
2019-02-04T02:58:09.827Z,8.03
2019-02-04T03:00:40.922Z,8.00
2019-02-04T03:03:11.826Z,7.70
2019-02-04T03:05:42.803Z,7.97
2019-02-04T03:08:14.116Z,7.70
2019-02-04T03:10:45.111Z,7.70
2019-02-04T03:13:15.971Z,8.07
2019-02-04T03:15:46.919Z,7.87
2019-02-04T03:18:17.850Z,9.77
2019-02-04T03:20:48.763Z,9.40
2019-02-04T03:23:19.552Z,9.10
2019-02-04T03:25:50.721Z,10.53
2019-02-04T03:28:21.604Z,10.50
2019-02-04T03:30:52.679Z,10.43
2019-02-04T03:33:23.984Z,11.23
2019-02-04T03:35:55.020Z,9.80
2019-02-04T03:38:25.872Z,9.93
2019-02-04T03:40:57.974Z,9.40
2019-02-04T03:43:28.880Z,9.17
2019-02-04T03:45:59.792Z,9.73
2019-02-04T03:48:30.680Z,8.67
2019-02-04T03:51:01.566Z,8.33
2019-02-04T03:53:32.452Z,7.90
2019-02-04T03:56:03.483Z,8.53
2019-02-04T03:58:34.603Z,8.60
2019-02-04T04:01:05.628Z,9.20
2019-02-04T04:03:36.617Z,11.50
2019-02-04T04:06:07.587Z,9.07
2019-02-04T04:08:38.167Z,9.57
2019-02-04T04:11:10.168Z,7.77
2019-02-04T04:13:41.065Z,8.60
2019-02-04T04:16:12.054Z,8.03
2019-02-04T04:18:43.060Z,8.70
2019-02-04T04:21:14.119Z,8.90
2019-02-04T04:23:45.330Z,8.13
2019-02-04T04:26:16.235Z,9.07
2019-02-04T04:28:47.125Z,9.33
2019-02-04T04:31:18.291Z,7.70
2019-02-04T04:33:49.191Z,7.50
2019-02-04T04:36:20.211Z,8.70
2019-02-04T04:38:51.080Z,8.67
2019-02-04T04:41:22.148Z,9.00
2019-02-04T04:43:53.045Z,9.00
2019-02-04T04:46:24.037Z,8.93
2019-02-04T04:48:55.750Z,9.83
2019-02-04T04:51:26.864Z,9.70
2019-02-04T04:53:57.624Z,7.97
2019-02-04T04:56:28.615Z,9.67
2019-02-04T04:58:59.394Z,8.40
2019-02-04T05:01:30.540Z,7.70
2019-02-04T05:04:01.386Z,8.23
2019-02-04T05:06:32.553Z,9.73
2019-02-04T05:09:05.124Z,10.27
2019-02-04T05:11:36.603Z,8.30
2019-02-04T05:14:07.378Z,9.80
2019-02-04T05:16:39.321Z,8.80
2019-02-04T05:19:10.287Z,7.20
2019-02-04T05:21:41.176Z,7.97
2019-02-04T05:24:12.073Z,6.40
2019-02-04T05:26:43.073Z,7.27
2019-02-04T05:29:14.052Z,7.07
2019-02-04T05:31:45.216Z,7.87
2019-02-04T05:34:16.035Z,7.60
2019-02-04T05:36:47.312Z,7.07
2019-02-04T05:39:18.208Z,9.00
2019-02-04T05:41:49.504Z,7.57
2019-02-04T05:44:20.300Z,7.73
2019-02-04T05:46:52.184Z,7.30
2019-02-04T05:49:22.982Z,8.70
2019-02-04T05:51:55.157Z,7.87
2019-02-04T05:54:26.093Z,9.97
2019-02-04T05:56:57.269Z,8.83
2019-02-04T05:59:28.084Z,7.60
2019-02-04T06:01:59.190Z,7.77
2019-02-04T06:04:29.947Z,7.93
2019-02-04T06:07:00.843Z,8.30
2019-02-04T06:09:31.612Z,9.90
2019-02-04T06:12:02.609Z,8.23
2019-02-04T06:14:33.303Z,8.83
2019-02-04T06:17:04.667Z,8.30
2019-02-04T06:19:35.582Z,8.33
2019-02-04T06:22:06.722Z,7.53
2019-02-04T06:24:37.672Z,7.57
2019-02-04T06:27:10.285Z,7.30
2019-02-04T06:29:41.383Z,8.63
2019-02-04T06:32:12.528Z,10.13
2019-02-04T06:34:43.476Z,8.40
2019-02-04T06:37:14.633Z,8.70
2019-02-04T06:39:45.536Z,7.60
2019-02-04T06:42:16.629Z,8.27
2019-02-04T06:44:47.439Z,6.90
2019-02-04T06:47:18.340Z,7.20
2019-02-04T06:49:49.196Z,6.47
2019-02-04T06:52:19.979Z,7.07
2019-02-04T06:54:50.768Z,6.20
2019-02-04T06:57:21.858Z,6.17
2019-02-04T06:59:52.663Z,5.90
2019-02-04T07:02:24.200Z,4.73
2019-02-04T07:04:55.141Z,6.43
2019-02-04T07:07:26.951Z,6.27
2019-02-04T07:09:58.139Z,6.50
2019-02-04T07:12:29.050Z,6.33
2019-02-04T07:14:59.822Z,6.50
2019-02-04T07:17:30.732Z,6.67
2019-02-04T07:20:01.696Z,7.60
2019-02-04T07:22:33.180Z,5.83
2019-02-04T07:25:04.275Z,8.20
2019-02-04T07:27:35.288Z,7.70
2019-02-04T07:30:07.803Z,6.77
2019-02-04T07:32:38.811Z,6.90
2019-02-04T07:35:10.605Z,7.77
2019-02-04T07:37:41.536Z,7.20
2019-02-04T07:40:15.553Z,8.10
2019-02-04T07:42:46.754Z,8.90
2019-02-04T07:45:17.832Z,9.10
2019-02-04T07:47:49.183Z,8.03
2019-02-04T07:50:20.239Z,8.40
2019-02-04T07:52:51.342Z,8.33
2019-02-04T07:55:22.196Z,8.00
2019-02-04T07:57:53.221Z,8.93
2019-02-04T08:00:26.230Z,7.23
2019-02-04T08:02:57.543Z,9.73
2019-02-04T08:05:28.410Z,7.93
2019-02-04T08:07:59.592Z,7.83
2019-02-04T08:10:30.408Z,9.10
2019-02-04T08:13:02.489Z,9.07
2019-02-04T08:15:35.669Z,8.97
2019-02-04T08:18:07.494Z,7.90
2019-02-04T08:20:38.464Z,9.10
2019-02-04T08:23:09.361Z,9.43
2019-02-04T08:25:40.539Z,11.20
2019-02-04T08:28:11.423Z,10.30
2019-02-04T08:30:42.208Z,8.07
2019-02-04T08:33:13.192Z,7.77
2019-02-04T08:35:44.097Z,8.80
2019-02-04T08:38:14.983Z,7.50
2019-02-04T08:40:45.868Z,7.70
2019-02-04T08:43:16.763Z,8.27
2019-02-04T08:45:47.640Z,7.50
2019-02-04T08:48:18.912Z,8.60
2019-02-04T08:50:49.832Z,6.90
2019-02-04T08:53:20.846Z,7.40
2019-02-04T08:55:51.856Z,6.17
2019-02-04T08:58:22.883Z,6.17
2019-02-04T09:00:53.784Z,5.37
2019-02-04T09:03:24.775Z,5.60
2019-02-04T09:05:55.773Z,6.27
2019-02-04T09:08:26.739Z,5.50
2019-02-04T09:10:57.722Z,5.77
2019-02-04T09:13:28.735Z,5.03
2019-02-04T09:15:59.625Z,5.57
2019-02-04T09:18:30.593Z,5.43
2019-02-04T09:21:01.682Z,4.47
2019-02-04T09:23:32.734Z,6.43
2019-02-04T09:26:03.691Z,5.10
2019-02-04T09:28:34.573Z,5.13
2019-02-04T09:31:05.556Z,10.20
2019-02-04T09:33:37.012Z,9.47
2019-02-04T09:36:08.042Z,10.40
2019-02-04T09:38:39.104Z,6.70
2019-02-04T09:41:10.019Z,5.33
2019-02-04T09:43:41.001Z,5.80
2019-02-04T09:46:11.909Z,6.27
2019-02-04T09:48:42.800Z,6.10
2019-02-04T09:51:13.667Z,5.90
2019-02-04T09:53:44.580Z,8.17
2019-02-04T09:56:15.438Z,5.13
2019-02-04T09:58:46.639Z,5.30
2019-02-04T10:01:17.544Z,12.97
2019-02-04T10:03:48.514Z,6.47
2019-02-04T10:06:20.442Z,6.50
2019-02-04T10:08:51.446Z,5.70
2019-02-04T10:11:22.415Z,11.40
2019-02-04T10:13:54.034Z,12.67
2019-02-04T10:16:24.909Z,9.13
2019-02-04T10:18:55.971Z,6.03
2019-02-04T10:21:26.793Z,4.50
2019-02-04T10:23:57.789Z,4.27
2019-02-04T10:26:28.690Z,4.27
2019-02-04T10:28:59.627Z,5.17
2019-02-04T10:31:30.538Z,5.37
2019-02-04T10:34:01.576Z,5.33
2019-02-04T10:36:32.407Z,4.43
2019-02-04T10:39:04.941Z,5.37
2019-02-04T10:41:37.618Z,5.13
2019-02-04T10:44:08.674Z,4.67
2019-02-04T10:46:39.668Z,5.43
2019-02-04T10:49:10.682Z,7.83
2019-02-04T10:51:41.559Z,6.17
2019-02-04T10:54:12.327Z,5.50
2019-02-04T10:56:43.134Z,4.70
2019-02-04T10:59:14.087Z,4.87
2019-02-04T11:01:45.089Z,5.00
2019-02-04T11:04:16.496Z,4.90
2019-02-04T11:06:47.595Z,5.33
2019-02-04T11:09:18.579Z,5.50
2019-02-04T11:11:49.234Z,5.20
2019-02-04T11:14:20.239Z,5.00
2019-02-04T11:16:51.340Z,4.47
2019-02-04T11:19:22.382Z,5.77
2019-02-04T11:21:53.315Z,4.40
2019-02-04T11:24:24.384Z,5.33
2019-02-04T11:26:55.308Z,4.47
2019-02-04T11:29:26.705Z,5.83
2019-02-04T11:31:57.601Z,5.57
2019-02-04T11:34:28.608Z,5.03
2019-02-04T11:36:59.469Z,6.03
2019-02-04T11:39:30.511Z,4.93
2019-02-04T11:42:01.330Z,4.40
2019-02-04T11:44:32.326Z,4.57
2019-02-04T11:47:03.317Z,4.30
2019-02-04T11:49:34.348Z,4.87
2019-02-04T11:52:05.294Z,4.30
2019-02-04T11:54:36.467Z,5.10
2019-02-04T11:57:07.365Z,3.80
2019-02-04T11:59:38.383Z,3.70
2019-02-04T12:02:09.858Z,4.13
2019-02-04T12:04:40.845Z,3.63
2019-02-04T12:07:11.828Z,3.17
2019-02-04T12:09:42.838Z,4.30
2019-02-04T12:12:13.935Z,3.73
2019-02-04T12:14:44.990Z,4.10
2019-02-04T12:17:15.863Z,5.83
2019-02-04T12:19:46.683Z,5.23
2019-02-04T12:22:17.793Z,4.57
2019-02-04T12:24:49.059Z,4.53
2019-02-04T12:27:31.544Z,4.30
2019-02-04T12:29:52.958Z,4.90
2019-02-04T12:32:23.797Z,5.57
2019-02-04T12:34:54.778Z,5.30
2019-02-04T12:37:25.563Z,4.53
2019-02-04T12:39:56.527Z,4.63
2019-02-04T12:42:27.437Z,4.33
2019-02-04T12:44:59.243Z,4.30
2019-02-04T12:47:30.351Z,4.17
2019-02-04T12:50:01.345Z,3.80
2019-02-04T12:52:32.328Z,3.90
2019-02-04T12:55:03.596Z,4.47
2019-02-04T12:57:34.491Z,4.00
2019-02-04T13:00:11.608Z,3.70
2019-02-04T13:02:42.634Z,3.57
2019-02-04T13:05:26.073Z,3.10
2019-02-04T13:07:56.906Z,3.60
2019-02-04T13:10:28.115Z,3.27
2019-02-04T13:12:59.171Z,2.87
2019-02-04T13:15:30.168Z,4.07
2019-02-04T13:18:01.177Z,3.60
2019-02-04T13:20:32.152Z,3.57
2019-02-04T13:23:03.230Z,3.20
2019-02-04T13:25:34.707Z,4.00
2019-02-04T13:28:07.664Z,3.10
2019-02-04T13:30:38.681Z,3.53
2019-02-04T13:33:09.781Z,3.00
2019-02-04T13:35:41.163Z,3.67
2019-02-04T13:38:12.143Z,5.40
2019-02-04T13:40:44.661Z,4.00
2019-02-04T13:43:15.966Z,3.53
2019-02-04T13:45:48.040Z,4.33
2019-02-04T13:48:19.081Z,4.20
2019-02-04T13:50:49.877Z,4.30
2019-02-04T13:53:20.868Z,3.60
2019-02-04T13:55:51.859Z,3.50
2019-02-04T13:58:22.723Z,3.20
2019-02-04T14:00:53.757Z,3.47
2019-02-04T14:03:24.728Z,3.73
2019-02-04T14:05:55.795Z,3.60
2019-02-04T14:08:26.678Z,3.50
2019-02-04T14:10:57.695Z,3.90
2019-02-04T14:13:28.784Z,4.33
2019-02-04T14:15:59.862Z,3.63
2019-02-04T14:18:30.753Z,3.80
2019-02-04T14:21:02.850Z,3.67
2019-02-04T14:23:33.653Z,4.20
2019-02-04T14:26:04.662Z,3.60
2019-02-04T14:28:35.534Z,4.87
2019-02-04T14:31:06.565Z,4.70
2019-02-04T14:33:37.527Z,4.33
2019-02-04T14:36:08.645Z,4.93
2019-02-04T14:38:39.490Z,4.03
2019-02-04T14:41:10.474Z,5.27
2019-02-04T14:43:54.792Z,4.20
2019-02-04T14:46:31.866Z,4.97
2019-02-04T14:49:41.730Z,4.33
2019-02-04T14:52:44.490Z,4.20
2019-02-04T14:55:59.237Z,4.00
2019-02-04T14:59:08.891Z,5.10
2019-02-04T15:02:17.095Z,5.20
2019-02-04T15:05:21.259Z,7.23
2019-02-04T15:08:38.161Z,4.13
2019-02-04T15:11:46.884Z,4.27
2019-02-04T15:15:07.386Z,5.67
2019-02-04T15:18:13.529Z,5.63
2019-02-04T15:21:07.429Z,5.90
2019-02-04T15:24:16.099Z,4.67
2019-02-04T15:27:08.901Z,5.03
2019-02-04T15:29:56.636Z,4.50
2019-02-04T15:32:54.000Z,4.60
2019-02-04T15:36:04.226Z,3.83
2019-02-04T15:38:55.274Z,4.30
2019-02-04T15:41:53.824Z,5.27
2019-02-04T15:45:13.632Z,4.50
2019-02-04T15:48:25.633Z,4.40
2019-02-04T15:51:26.387Z,4.00
2019-02-04T15:53:58.786Z,3.90
2019-02-04T15:56:29.783Z,4.10
2019-02-04T15:59:00.792Z,5.23
2019-02-04T16:01:31.673Z,4.07
2019-02-04T16:04:22.875Z,4.13
2019-02-04T16:06:53.812Z,4.33
2019-02-04T16:09:24.828Z,5.37
2019-02-04T16:11:55.698Z,4.70
2019-02-04T16:14:26.862Z,5.10
2019-02-04T16:16:57.975Z,4.60
2019-02-04T16:19:29.081Z,3.97
2019-02-04T16:21:59.870Z,4.73
2019-02-04T16:24:30.946Z,5.07
2019-02-04T16:27:02.054Z,5.40
2019-02-04T16:29:33.162Z,4.43
2019-02-04T16:32:04.893Z,3.90
2019-02-04T16:34:36.144Z,4.43
2019-02-04T16:37:07.014Z,4.50
2019-02-04T16:39:38.026Z,4.20
2019-02-04T16:42:09.195Z,4.10
2019-02-04T16:44:40.314Z,4.70
2019-02-04T16:47:11.198Z,4.50
2019-02-04T16:49:42.190Z,5.10
2019-02-04T16:52:13.295Z,4.43
2019-02-04T16:54:44.925Z,5.13
2019-02-04T16:57:15.757Z,5.10
2019-02-04T16:59:46.770Z,6.23
2019-02-04T17:02:17.651Z,7.50
2019-02-04T17:04:48.730Z,7.03
2019-02-04T17:07:19.618Z,7.13
2019-02-04T17:09:50.631Z,6.93
2019-02-04T17:12:21.813Z,6.13
2019-02-04T17:14:52.891Z,7.53
2019-02-04T17:17:23.775Z,7.43
2019-02-04T17:19:54.870Z,7.80
2019-02-04T17:22:25.776Z,7.90
2019-02-04T17:24:56.655Z,8.23
2019-02-04T17:27:27.536Z,7.60
2019-02-04T17:29:58.499Z,7.67
2019-02-04T17:32:29.428Z,9.53
2019-02-04T17:35:00.998Z,10.07
2019-02-04T17:37:31.795Z,8.70
2019-02-04T17:40:02.846Z,10.30
2019-02-04T17:42:34.207Z,8.70
2019-02-04T17:45:06.119Z,9.53
2019-02-04T17:47:37.293Z,8.90
2019-02-04T17:50:09.308Z,8.63
2019-02-04T17:52:40.114Z,7.33
2019-02-04T17:55:14.456Z,8.50
2019-02-04T17:57:45.245Z,8.20
2019-02-04T18:00:22.635Z,8.30
2019-02-04T18:02:53.602Z,7.77
2019-02-04T18:05:24.537Z,7.80
2019-02-04T18:07:55.080Z,7.13
2019-02-04T18:10:25.786Z,9.13
2019-02-04T18:12:56.516Z,9.50
2019-02-04T18:15:27.797Z,8.53
2019-02-04T18:17:58.342Z,9.93
2019-02-04T18:20:29.145Z,10.23
2019-02-04T18:22:59.896Z,9.80
2019-02-04T18:25:31.071Z,10.00
2019-02-04T18:28:01.842Z,11.10
2019-02-04T18:30:33.136Z,12.70
2019-02-04T18:33:04.140Z,11.03
2019-02-04T18:35:35.503Z,10.87
2019-02-04T18:38:06.511Z,12.43
2019-02-04T18:40:37.514Z,12.20
2019-02-04T18:43:08.409Z,13.73
2019-02-04T18:45:39.580Z,13.57
2019-02-04T18:48:10.470Z,13.43
2019-02-04T18:50:42.985Z,13.10
2019-02-04T18:53:13.808Z,13.90
2019-02-04T18:55:44.785Z,12.20
2019-02-04T18:58:15.689Z,11.00
2019-02-04T19:00:47.080Z,10.70
2019-02-04T19:03:17.952Z,9.17
2019-02-04T19:05:48.967Z,9.20
2019-02-04T19:08:20.035Z,10.37
2019-02-04T19:10:51.038Z,9.43
2019-02-04T19:13:21.596Z,8.93
2019-02-04T19:15:52.344Z,9.23
2019-02-04T19:18:23.292Z,9.90
2019-02-04T19:20:55.273Z,11.27
2019-02-04T19:23:27.006Z,10.03
2019-02-04T19:25:58.092Z,10.63
2019-02-04T19:28:29.092Z,11.67
2019-02-04T19:31:07.428Z,9.67
2019-02-04T19:33:38.239Z,10.27
2019-02-04T19:36:10.667Z,9.60
2019-02-04T19:38:41.615Z,8.00
2019-02-04T19:41:12.407Z,7.97
2019-02-04T19:43:43.427Z,8.17
2019-02-04T19:46:14.440Z,9.00
2019-02-04T19:48:45.290Z,7.40
2019-02-04T19:51:16.467Z,9.53
2019-02-04T19:53:48.671Z,8.80
2019-02-04T19:56:19.822Z,8.20
2019-02-04T19:58:50.576Z,7.63
2019-02-04T20:09:55.201Z,9.97
2019-02-04T20:12:25.992Z,8.33
2019-02-04T20:14:57.180Z,10.30
2019-02-04T20:17:28.212Z,9.37
2019-02-04T20:19:59.122Z,10.80
2019-02-04T20:22:30.857Z,10.00
2019-02-04T20:25:01.782Z,10.70
2019-02-04T20:27:33.985Z,9.47
2019-02-04T20:30:06.168Z,10.60
2019-02-04T20:32:37.040Z,9.70
2019-02-04T20:35:08.043Z,9.93
2019-02-04T20:37:39.042Z,10.90
2019-02-04T20:40:10.875Z,10.93
2019-02-04T20:42:41.822Z,9.57
2019-02-04T20:45:13.337Z,10.10
2019-02-04T20:47:44.531Z,9.57
2019-02-04T20:50:20.698Z,7.67
2019-02-04T20:52:51.642Z,8.37
2019-02-04T20:55:22.703Z,8.37
2019-02-04T20:57:53.776Z,9.30
2019-02-04T21:00:26.308Z,8.17
2019-02-04T21:02:57.645Z,9.30
2019-02-04T21:05:28.714Z,9.03
2019-02-04T21:07:59.917Z,8.63
2019-02-04T21:10:31.015Z,8.83
2019-02-04T21:13:02.010Z,9.27
2019-02-04T21:15:32.874Z,8.30
2019-02-04T21:18:04.155Z,7.70
2019-02-04T21:20:35.078Z,7.17
2019-02-04T21:23:06.773Z,8.07
2019-02-04T21:25:37.883Z,7.57
2019-02-04T21:28:08.954Z,7.33
2019-02-04T21:30:42.716Z,6.90
2019-02-04T21:33:13.991Z,8.00
2019-02-04T21:35:44.906Z,7.70
2019-02-04T21:38:16.259Z,8.00
2019-02-04T21:40:47.287Z,7.67
2019-02-04T21:43:18.486Z,8.77
2019-02-04T21:45:49.279Z,7.30
2019-02-04T21:48:20.338Z,7.53
2019-02-04T21:50:51.565Z,8.90
2019-02-04T21:53:22.555Z,8.30
2019-02-04T21:55:53.423Z,7.93
2019-02-04T21:58:24.430Z,8.00
2019-02-04T22:00:55.320Z,8.27
2019-02-04T22:03:26.595Z,8.90
2019-02-04T22:05:57.399Z,7.83
2019-02-04T22:08:28.288Z,9.60
2019-02-04T22:10:59.470Z,7.50
2019-02-04T22:13:30.474Z,7.70
2019-02-04T22:16:01.259Z,7.20
2019-02-04T22:18:32.335Z,7.50
2019-02-04T22:21:03.115Z,6.90
2019-02-04T22:23:34.014Z,5.70
2019-02-04T22:26:04.997Z,7.10
2019-02-04T22:28:35.891Z,6.60
2019-02-04T22:31:06.890Z,5.77
2019-02-04T22:33:37.867Z,5.50
2019-02-04T22:36:08.748Z,6.63
2019-02-04T22:38:39.897Z,6.73
2019-02-04T22:41:10.847Z,6.53
2019-02-04T22:43:41.769Z,6.97
2019-02-04T22:46:12.611Z,8.53
2019-02-04T22:48:43.500Z,9.10
2019-02-04T22:51:14.373Z,6.27
2019-02-04T22:53:45.657Z,7.83
2019-02-04T22:56:16.480Z,8.40
2019-02-04T22:58:47.657Z,6.90
2019-02-04T23:01:39.323Z,8.30
2019-02-04T23:04:10.759Z,8.37
2019-02-04T23:06:41.635Z,8.70
2019-02-04T23:09:12.626Z,9.87
2019-02-04T23:11:43.597Z,10.63
2019-02-04T23:14:14.500Z,9.90
2019-02-04T23:16:45.395Z,9.13
2019-02-04T23:19:16.394Z,11.83
2019-02-04T23:21:47.156Z,11.90
2019-02-04T23:24:18.224Z,11.37
2019-02-04T23:26:49.046Z,11.13
2019-02-04T23:29:20.219Z,10.13
2019-02-04T23:31:51.316Z,9.90
2019-02-04T23:34:22.208Z,10.73
2019-02-04T23:36:54.112Z,9.83
2019-02-04T23:39:25.262Z,12.37
2019-02-04T23:41:58.350Z,12.37
2019-02-04T23:44:29.013Z,11.27
2019-02-04T23:46:59.923Z,11.40
2019-02-04T23:49:31.620Z,10.87
2019-02-04T23:52:02.406Z,12.70
2019-02-04T23:54:33.300Z,12.53
2019-02-04T23:57:04.181Z,13.03
2019-02-04T23:59:35.172Z,13.93
